createdAt,value
2022-12-05T00:01:17.847Z,14.63
2022-12-05T00:03:45.735Z,15.27
2022-12-05T00:06:13.492Z,14.65
2022-12-05T00:08:41.034Z,16.98
2022-12-05T00:11:15.798Z,16.00
2022-12-05T00:13:43.692Z,15.55
2022-12-05T00:16:12.289Z,11.88
2022-12-05T00:18:40.224Z,15.77
2022-12-05T00:21:08.297Z,16.10
2022-12-05T00:23:35.697Z,14.98
2022-12-05T00:26:04.772Z,17.20
2022-12-05T00:28:33.052Z,17.08
2022-12-05T00:31:04.487Z,16.48
2022-12-05T00:33:31.972Z,15.45
2022-12-05T00:36:06.720Z,16.50
2022-12-05T00:38:34.266Z,14.52
2022-12-05T00:41:05.335Z,15.45
2022-12-05T00:43:33.011Z,15.65
2022-12-05T00:46:04.561Z,15.45
2022-12-05T00:48:32.238Z,15.35
2022-12-05T00:51:04.086Z,15.63
2022-12-05T00:53:31.701Z,16.23
2022-12-05T00:56:03.616Z,16.58
2022-12-05T01:00:58.683Z,14.38
2022-12-05T01:03:26.266Z,16.10
2022-12-05T01:05:53.669Z,15.40
2022-12-05T01:08:21.194Z,14.80
2022-12-05T01:10:55.613Z,16.27
2022-12-05T01:13:23.876Z,16.15
2022-12-05T01:15:51.344Z,15.90
2022-12-05T01:18:19.698Z,15.48
2022-12-05T01:20:48.942Z,15.10
2022-12-05T01:23:16.989Z,15.18
2022-12-05T01:25:45.392Z,15.88
2022-12-05T01:28:13.473Z,16.45
2022-12-05T01:30:41.721Z,15.52
2022-12-05T01:33:09.677Z,15.25
2022-12-05T01:35:38.151Z,13.95
2022-12-05T01:38:06.157Z,15.23
2022-12-05T01:40:35.868Z,15.43
2022-12-05T01:43:03.814Z,14.57
2022-12-05T01:45:39.546Z,15.48
2022-12-05T01:48:10.329Z,16.77
2022-12-05T01:50:38.300Z,16.23
2022-12-05T01:56:09.010Z,14.88
2022-12-05T01:58:38.474Z,13.93
2022-12-05T02:01:05.869Z,14.48
2022-12-05T02:03:33.240Z,13.27
2022-12-05T02:06:00.862Z,14.55
2022-12-05T02:08:29.179Z,14.10
2022-12-05T02:10:57.419Z,14.02
2022-12-05T02:13:35.403Z,14.52
2022-12-05T02:16:14.917Z,14.38
2022-12-05T02:18:50.898Z,16.55
2022-12-05T02:21:44.114Z,14.82
2022-12-05T02:24:23.179Z,14.73
2022-12-05T02:27:08.893Z,13.15
2022-12-05T02:29:55.236Z,14.77
2022-12-05T02:32:25.869Z,15.25
2022-12-05T02:34:53.075Z,15.07
2022-12-05T02:37:24.564Z,13.48
2022-12-05T02:40:10.560Z,13.90
2022-12-05T02:42:51.264Z,15.23
2022-12-05T02:45:19.600Z,14.95
2022-12-05T02:47:48.463Z,14.88
2022-12-05T02:50:17.756Z,15.77
2022-12-05T02:52:45.949Z,15.32
2022-12-05T02:55:14.610Z,14.50
2022-12-05T02:57:43.548Z,15.20
2022-12-05T03:00:11.621Z,14.55
2022-12-05T03:02:42.027Z,13.95
2022-12-05T03:05:20.092Z,14.48
2022-12-05T03:07:49.649Z,15.32
2022-12-05T03:10:19.427Z,14.27
2022-12-05T03:12:49.874Z,13.65
2022-12-05T03:15:24.605Z,14.02
2022-12-05T03:17:59.993Z,15.13
2022-12-05T03:20:33.230Z,13.88
2022-12-05T03:23:03.961Z,13.73
2022-12-05T03:25:36.623Z,13.63
2022-12-05T03:28:07.451Z,14.48
2022-12-05T03:30:36.726Z,12.35
2022-12-05T03:33:09.357Z,14.00
2022-12-05T03:35:56.518Z,15.82
2022-12-05T03:38:28.824Z,14.50
2022-12-05T03:41:14.506Z,12.60
2022-12-05T03:43:51.880Z,14.50
2022-12-05T03:46:25.281Z,13.15
2022-12-05T03:49:02.214Z,13.77
2022-12-05T03:51:33.949Z,17.15
2022-12-05T03:54:04.149Z,14.75
2022-12-05T03:56:35.389Z,14.70
2022-12-05T03:59:17.894Z,13.63
2022-12-05T04:01:47.382Z,15.00
2022-12-05T04:04:17.408Z,13.75
2022-12-05T04:06:46.301Z,14.07
2022-12-05T04:09:17.559Z,14.70
2022-12-05T04:11:48.005Z,14.82
2022-12-05T04:14:20.935Z,14.05
2022-12-05T04:17:04.003Z,12.68
2022-12-05T04:20:00.746Z,13.90
2022-12-05T04:22:28.430Z,13.68
2022-12-05T04:25:16.060Z,13.85
2022-12-05T04:27:49.359Z,13.88
2022-12-05T04:30:24.361Z,13.65
2022-12-05T04:33:00.709Z,11.68
2022-12-05T04:35:33.412Z,14.98
2022-12-05T04:38:06.015Z,14.30
2022-12-05T04:40:49.384Z,12.68
2022-12-05T04:43:17.558Z,13.70
2022-12-05T04:45:45.541Z,13.30
2022-12-05T04:48:14.715Z,13.70
2022-12-05T04:50:42.885Z,13.02
2022-12-05T04:53:11.352Z,13.30
2022-12-05T04:55:40.391Z,13.45
2022-12-05T04:58:09.617Z,12.60
2022-12-05T05:00:47.452Z,13.52
2022-12-05T05:03:18.954Z,13.15
2022-12-05T05:05:49.240Z,13.10
2022-12-05T05:08:17.972Z,12.93
2022-12-05T05:10:50.124Z,14.38
2022-12-05T05:13:17.767Z,13.07
2022-12-05T05:15:45.032Z,15.45
2022-12-05T05:18:12.326Z,14.38
2022-12-05T05:20:39.643Z,14.55
2022-12-05T05:23:07.015Z,13.52
2022-12-05T05:25:34.325Z,13.15
2022-12-05T05:28:01.594Z,12.95
2022-12-05T05:30:28.863Z,15.02
2022-12-05T05:32:56.182Z,13.20
2022-12-05T05:35:23.500Z,15.13
2022-12-05T05:37:50.840Z,16.20
2022-12-05T05:40:18.265Z,14.70
2022-12-05T05:42:46.583Z,14.43
2022-12-05T05:45:14.758Z,14.38
2022-12-05T05:47:42.413Z,13.82
2022-12-05T05:50:10.149Z,14.00
2022-12-05T05:52:38.088Z,14.25
2022-12-05T05:55:06.400Z,12.77
2022-12-05T05:57:33.702Z,12.50
2022-12-05T06:00:01.255Z,12.80
2022-12-05T06:02:33.465Z,12.85
2022-12-05T06:05:01.087Z,13.48
2022-12-05T06:07:28.691Z,12.45
2022-12-05T06:09:56.409Z,13.07
2022-12-05T06:12:23.919Z,13.10
2022-12-05T06:14:51.723Z,14.10
2022-12-05T06:17:19.004Z,12.38
2022-12-05T06:19:46.575Z,13.02
2022-12-05T06:22:13.848Z,12.50
2022-12-05T06:24:41.218Z,12.40
2022-12-05T06:27:08.469Z,10.95
2022-12-05T06:29:36.083Z,10.55
2022-12-05T06:32:03.786Z,10.45
2022-12-05T06:34:32.606Z,10.30
2022-12-05T06:37:00.135Z,11.23
2022-12-05T06:39:28.094Z,11.35
2022-12-05T06:41:55.423Z,15.63
2022-12-05T06:44:24.729Z,11.82
2022-12-05T06:46:52.042Z,12.38
2022-12-05T06:49:25.066Z,11.77
2022-12-05T06:51:56.632Z,10.82
2022-12-05T06:54:23.972Z,11.50
2022-12-05T06:56:51.249Z,11.50
2022-12-05T06:59:18.553Z,12.00
2022-12-05T07:01:46.981Z,10.85
2022-12-05T07:04:15.906Z,12.38
2022-12-05T07:06:49.883Z,11.23
2022-12-05T07:09:18.277Z,10.48
2022-12-05T07:11:52.349Z,12.38
2022-12-05T07:14:45.927Z,10.75
2022-12-05T07:17:07.465Z,11.27
2022-12-05T07:19:34.791Z,10.98
2022-12-05T07:22:02.171Z,9.80
2022-12-05T07:24:29.559Z,7.28
2022-12-05T07:26:56.924Z,13.27
2022-12-05T07:29:24.348Z,7.95
2022-12-05T07:31:51.691Z,8.32
2022-12-05T07:34:18.940Z,7.18
2022-12-05T07:36:46.550Z,7.00
2022-12-05T07:39:13.832Z,6.60
2022-12-05T07:41:42.115Z,6.32
2022-12-05T07:44:13.079Z,6.53
2022-12-05T07:46:40.674Z,6.40
2022-12-05T07:49:08.168Z,6.22
2022-12-05T07:51:35.890Z,6.50
2022-12-05T07:54:03.198Z,6.40
2022-12-05T07:56:30.644Z,11.13
2022-12-05T07:58:57.960Z,8.43
2022-12-05T08:01:27.301Z,5.45
2022-12-05T08:03:55.701Z,6.05
2022-12-05T08:06:24.651Z,7.15
2022-12-05T08:08:51.989Z,7.60
2022-12-05T08:11:23.635Z,8.07
2022-12-05T08:13:51.453Z,7.50
2022-12-05T08:16:23.448Z,14.68
2022-12-05T08:18:54.733Z,5.80
2022-12-05T08:21:22.048Z,5.20
2022-12-05T08:23:49.454Z,6.82
2022-12-05T08:26:29.236Z,5.20
2022-12-05T08:29:01.019Z,5.55
2022-12-05T08:31:29.620Z,6.88
2022-12-05T08:33:59.377Z,6.90
2022-12-05T08:36:30.362Z,5.00
2022-12-05T08:38:58.450Z,6.05
2022-12-05T08:41:28.650Z,5.07
2022-12-05T08:43:56.632Z,5.82
2022-12-05T08:46:24.150Z,6.05
2022-12-05T08:48:57.209Z,6.25
2022-12-05T08:51:24.603Z,6.10
2022-12-05T08:53:51.849Z,7.20
2022-12-05T08:56:25.002Z,6.15
2022-12-05T08:58:55.029Z,6.07
2022-12-05T09:01:30.395Z,6.30
2022-12-05T09:03:58.397Z,7.00
2022-12-05T09:06:25.991Z,7.07
2022-12-05T09:09:00.939Z,6.80
2022-12-05T09:11:29.415Z,11.70
2022-12-05T09:13:57.819Z,6.80
2022-12-05T09:16:35.157Z,7.03
2022-12-05T09:19:07.248Z,6.30
2022-12-05T09:21:34.565Z,7.75
2022-12-05T09:24:01.942Z,6.93
2022-12-05T09:26:30.134Z,8.23
2022-12-05T09:28:57.558Z,7.72
2022-12-05T09:31:27.001Z,7.70
2022-12-05T09:33:54.759Z,6.93
2022-12-05T09:36:23.674Z,6.43
2022-12-05T09:38:51.580Z,5.32
2022-12-05T09:41:56.693Z,6.03
2022-12-05T09:44:41.723Z,6.05
2022-12-05T09:47:15.819Z,6.60
2022-12-05T09:49:47.411Z,7.47
2022-12-05T09:52:21.236Z,7.10
2022-12-05T09:54:48.549Z,10.85
2022-12-05T09:57:16.177Z,23.33
2022-12-05T09:59:43.577Z,6.47
2022-12-05T10:02:16.934Z,6.60
2022-12-05T10:05:02.474Z,6.78
2022-12-05T10:07:47.273Z,6.15
2022-12-05T10:10:40.824Z,6.30
2022-12-05T10:13:17.306Z,6.50
2022-12-05T10:15:45.893Z,5.78
2022-12-05T10:18:32.794Z,6.32
2022-12-05T10:21:06.131Z,6.68
2022-12-05T10:24:01.020Z,8.85
2022-12-05T10:26:36.763Z,5.90
2022-12-05T10:29:18.823Z,5.53
2022-12-05T10:31:47.760Z,5.57
2022-12-05T10:34:30.333Z,8.05
2022-12-05T10:37:18.065Z,5.10
2022-12-05T10:39:46.026Z,5.50
2022-12-05T10:42:15.073Z,6.03
2022-12-05T10:44:42.666Z,5.78
2022-12-05T10:47:10.178Z,6.05
2022-12-05T10:49:38.096Z,7.70
2022-12-05T10:52:05.408Z,7.95
2022-12-05T10:54:34.224Z,7.95
2022-12-05T10:57:01.841Z,8.32
2022-12-05T10:59:45.528Z,7.85
2022-12-05T11:02:32.665Z,8.23
2022-12-05T11:05:00.324Z,8.27
2022-12-05T11:07:31.056Z,8.60
2022-12-05T11:10:02.106Z,7.75
2022-12-05T11:12:35.594Z,9.52
2022-12-05T11:15:06.232Z,12.00
2022-12-05T11:17:38.117Z,10.52
2022-12-05T11:20:25.765Z,8.43
2022-12-05T11:22:54.812Z,8.10
2022-12-05T11:25:35.697Z,7.00
2022-12-05T11:28:18.353Z,6.15
2022-12-05T11:30:57.770Z,7.30
2022-12-05T11:33:27.496Z,6.05
2022-12-05T11:35:57.349Z,6.00
2022-12-05T11:38:28.997Z,5.82
2022-12-05T11:40:56.282Z,6.80
2022-12-05T11:43:29.703Z,6.40
2022-12-05T11:46:03.155Z,6.85
2022-12-05T11:48:36.547Z,6.43
2022-12-05T11:51:11.600Z,6.25
2022-12-05T11:53:43.579Z,6.43
2022-12-05T11:56:17.880Z,6.40
2022-12-05T11:59:10.010Z,10.07
2022-12-05T12:01:49.326Z,5.45
2022-12-05T12:04:37.406Z,6.28
2022-12-05T12:07:16.267Z,6.35
2022-12-05T12:09:43.578Z,5.20
2022-12-05T12:12:16.591Z,6.45
2022-12-05T12:14:52.283Z,7.03
2022-12-05T12:17:25.507Z,6.55
2022-12-05T12:20:10.474Z,6.78
2022-12-05T12:22:56.242Z,6.22
2022-12-05T12:25:38.900Z,6.03
2022-12-05T12:28:27.476Z,6.57
2022-12-05T12:31:01.580Z,6.15
2022-12-05T12:33:34.614Z,29.83
2022-12-05T12:36:13.372Z,6.50
2022-12-05T12:38:48.190Z,6.03
2022-12-05T12:41:37.059Z,5.68
2022-12-05T12:44:23.381Z,6.38
2022-12-05T12:46:54.968Z,6.40
2022-12-05T12:49:29.034Z,7.00
2022-12-05T12:52:02.035Z,5.85
2022-12-05T12:54:55.176Z,6.38
2022-12-05T12:57:24.082Z,6.95
2022-12-05T13:00:00.571Z,6.32
2022-12-05T13:02:32.677Z,6.38
2022-12-05T13:05:04.992Z,6.82
2022-12-05T13:10:06.774Z,6.13
2022-12-05T13:12:37.638Z,7.10
2022-12-05T13:15:19.407Z,6.68
2022-12-05T13:17:48.163Z,6.93
2022-12-05T13:20:20.200Z,6.47
2022-12-05T13:25:15.725Z,6.57
2022-12-05T13:27:54.189Z,5.40
2022-12-05T13:30:21.541Z,6.22
2022-12-05T13:32:55.682Z,5.82
2022-12-05T13:35:54.616Z,5.78
2022-12-05T13:38:46.752Z,6.03
2022-12-05T13:41:33.590Z,6.72
2022-12-05T13:44:06.590Z,5.68
2022-12-05T13:46:35.527Z,5.38
2022-12-05T13:49:17.165Z,6.65
2022-12-05T13:51:45.973Z,5.20
2022-12-05T13:54:24.786Z,5.72
2022-12-05T13:57:02.128Z,6.20
2022-12-05T13:59:48.375Z,6.53
2022-12-05T14:02:35.935Z,5.03
2022-12-05T14:05:25.548Z,6.20
2022-12-05T14:07:54.023Z,5.65
2022-12-05T14:10:21.325Z,5.13
2022-12-05T14:12:51.935Z,5.07
2022-12-05T14:15:28.784Z,6.38
2022-12-05T14:17:59.170Z,5.47
2022-12-05T14:20:31.928Z,5.90
2022-12-05T14:22:59.255Z,5.38
2022-12-05T14:25:26.626Z,5.55
2022-12-05T14:27:59.823Z,4.95
2022-12-05T14:30:34.986Z,4.85
2022-12-05T14:33:03.115Z,5.50
2022-12-05T14:35:46.169Z,5.88
2022-12-05T14:38:33.751Z,5.43
2022-12-05T14:41:17.657Z,5.40
2022-12-05T14:43:45.268Z,5.10
2022-12-05T14:46:17.889Z,5.30
2022-12-05T14:48:48.323Z,5.47
2022-12-05T14:51:31.260Z,4.85
2022-12-05T14:54:10.527Z,4.80
2022-12-05T14:56:43.192Z,5.25
2022-12-05T14:59:13.587Z,5.10
2022-12-05T15:01:43.968Z,5.00
2022-12-05T15:04:30.255Z,4.82
2022-12-05T15:07:11.205Z,5.25
2022-12-05T15:09:41.477Z,4.95
2022-12-05T15:12:21.397Z,4.93
2022-12-05T15:14:53.418Z,5.13
2022-12-05T15:20:00.010Z,5.75
2022-12-05T15:22:28.914Z,5.53
2022-12-05T15:24:56.611Z,4.75
2022-12-05T15:27:24.291Z,5.43
2022-12-05T15:29:54.791Z,5.32
2022-12-05T15:32:25.016Z,5.20
2022-12-05T15:35:02.182Z,5.60
2022-12-05T15:37:33.487Z,5.50
2022-12-05T15:40:00.786Z,6.77
2022-12-05T15:42:32.413Z,6.47
2022-12-05T15:45:15.411Z,5.85
2022-12-05T15:47:49.218Z,5.88
2022-12-05T15:50:28.443Z,6.72
2022-12-05T15:53:01.574Z,6.90
2022-12-05T15:55:47.692Z,7.82
2022-12-05T15:58:31.427Z,8.35
2022-12-05T16:01:04.217Z,8.23
2022-12-05T16:03:41.435Z,7.25
2022-12-05T16:06:29.069Z,9.05
2022-12-05T16:08:57.702Z,7.88
2022-12-05T16:11:25.104Z,8.15
2022-12-05T16:13:55.645Z,6.70
2022-12-05T16:16:24.446Z,6.22
2022-12-05T16:18:51.749Z,6.63
2022-12-05T16:21:49.591Z,6.47
2022-12-05T16:24:21.518Z,5.40
2022-12-05T16:26:59.175Z,6.03
2022-12-05T16:29:28.224Z,6.60
2022-12-05T16:31:56.707Z,6.57
2022-12-05T16:34:24.661Z,6.57
2022-12-05T16:36:53.107Z,7.82
2022-12-05T16:39:21.182Z,7.93
2022-12-05T16:41:49.215Z,7.75
2022-12-05T16:44:28.500Z,7.68
2022-12-05T16:46:56.644Z,8.40
2022-12-05T16:49:34.511Z,9.00
2022-12-05T16:52:01.859Z,7.38
2022-12-05T16:54:29.954Z,8.15
2022-12-05T16:56:57.670Z,9.23
2022-12-05T16:59:28.249Z,8.13
2022-12-05T17:01:55.626Z,7.95
2022-12-05T17:04:23.024Z,7.95
2022-12-05T17:06:50.361Z,8.52
2022-12-05T17:09:17.717Z,8.90
2022-12-05T17:11:46.474Z,9.38
2022-12-05T17:14:15.148Z,9.68
2022-12-05T17:16:43.224Z,9.60
2022-12-05T17:19:13.917Z,8.18
2022-12-05T17:21:42.319Z,8.70
2022-12-05T17:24:14.333Z,9.20
2022-12-05T17:29:10.077Z,7.50
2022-12-05T17:31:37.536Z,7.32
2022-12-05T17:34:10.990Z,6.03
2022-12-05T17:36:38.381Z,8.73
2022-12-05T17:39:05.653Z,10.45
2022-12-05T17:41:32.936Z,9.45
2022-12-05T17:44:00.229Z,8.15
2022-12-05T17:46:30.396Z,8.40
2022-12-05T17:48:57.753Z,7.60
2022-12-05T17:51:25.052Z,10.02
2022-12-05T17:53:53.022Z,8.85
2022-12-05T17:56:20.491Z,8.70
2022-12-05T17:58:48.257Z,9.82
2022-12-05T18:01:17.107Z,11.95
2022-12-05T18:03:44.758Z,9.52
2022-12-05T18:06:12.023Z,8.40
2022-12-05T18:08:40.013Z,8.55
2022-12-05T18:11:07.712Z,7.55
2022-12-05T18:13:35.013Z,7.43
2022-12-05T18:16:02.647Z,7.22
2022-12-05T18:18:30.291Z,6.63
2022-12-05T18:21:15.537Z,7.38
2022-12-05T18:23:42.877Z,10.05
2022-12-05T18:26:10.609Z,7.53
2022-12-05T18:28:39.063Z,7.70
2022-12-05T18:31:11.272Z,7.13
2022-12-05T18:33:38.730Z,7.22
2022-12-05T18:36:07.153Z,6.97
2022-12-05T18:38:34.475Z,6.97
2022-12-05T18:41:02.424Z,6.93
2022-12-05T18:43:29.828Z,8.70
2022-12-05T18:46:02.488Z,21.98
2022-12-05T18:48:39.391Z,13.90
2022-12-05T18:51:12.358Z,22.70
2022-12-05T18:53:39.781Z,10.98
2022-12-05T18:56:25.448Z,8.95
2022-12-05T18:59:02.439Z,7.05
2022-12-05T19:01:30.954Z,6.85
2022-12-05T19:03:59.095Z,10.52
2022-12-05T19:06:29.824Z,13.45
2022-12-05T19:08:59.168Z,9.77
2022-12-05T19:11:27.088Z,9.07
2022-12-05T19:13:57.878Z,9.15
2022-12-05T19:16:25.975Z,10.60
2022-12-05T19:18:58.041Z,8.73
2022-12-05T19:21:25.809Z,7.18
2022-12-05T19:23:53.491Z,7.47
2022-12-05T19:26:21.575Z,8.02
2022-12-05T19:28:49.172Z,8.30
2022-12-05T19:31:20.747Z,8.68
2022-12-05T19:33:50.381Z,10.68
2022-12-05T19:36:19.261Z,9.57
2022-12-05T19:38:47.938Z,10.85
2022-12-05T19:41:16.218Z,11.75
2022-12-05T19:43:44.757Z,10.27
2022-12-05T19:46:13.377Z,10.00
2022-12-05T19:48:40.691Z,11.05
2022-12-05T19:51:08.255Z,9.15
2022-12-05T19:53:37.569Z,7.45
2022-12-05T19:56:06.168Z,7.75
2022-12-05T19:58:34.747Z,7.68
2022-12-05T20:01:12.460Z,7.80
2022-12-05T20:03:41.159Z,8.50
2022-12-05T20:06:08.820Z,8.80
2022-12-05T20:08:37.113Z,8.57
2022-12-05T20:11:08.645Z,8.43
2022-12-05T20:13:52.015Z,7.85
2022-12-05T20:16:21.511Z,7.18
2022-12-05T20:18:49.823Z,7.80
2022-12-05T20:21:18.359Z,6.65
2022-12-05T20:23:46.067Z,8.07
2022-12-05T20:26:18.026Z,8.02
2022-12-05T20:31:20.141Z,7.68
2022-12-05T20:33:49.423Z,6.72
2022-12-05T20:36:18.207Z,6.55
2022-12-05T20:38:46.144Z,7.55
2022-12-05T20:41:15.563Z,7.50
2022-12-05T20:43:46.608Z,7.22
2022-12-05T20:46:15.509Z,6.68
2022-12-05T20:48:42.924Z,5.97
2022-12-05T20:51:11.184Z,7.22
2022-12-05T20:53:39.184Z,5.65
2022-12-05T20:56:06.986Z,8.90
2022-12-05T20:58:34.369Z,6.82
2022-12-05T21:01:02.466Z,7.70
2022-12-05T21:03:29.859Z,5.88
2022-12-05T21:05:57.331Z,6.22
2022-12-05T21:08:24.906Z,6.65
2022-12-05T21:10:53.243Z,5.80
2022-12-05T21:13:20.935Z,5.43
2022-12-05T21:15:48.440Z,6.55
2022-12-05T21:18:15.893Z,5.90
2022-12-05T21:20:43.170Z,5.35
2022-12-05T21:23:10.957Z,5.05
2022-12-05T21:25:38.326Z,4.50
2022-12-05T21:28:05.710Z,18.17
2022-12-05T21:30:34.855Z,3.22
2022-12-05T21:33:05.360Z,6.78
2022-12-05T21:35:32.752Z,3.88
2022-12-05T21:38:00.677Z,4.10
2022-12-05T21:40:29.512Z,8.85
2022-12-05T21:42:56.841Z,4.15
2022-12-05T21:45:24.344Z,4.20
2022-12-05T21:47:51.771Z,4.72
2022-12-05T21:50:19.139Z,4.50
2022-12-05T21:52:46.459Z,3.72
2022-12-05T21:55:15.932Z,3.47
2022-12-05T21:57:44.829Z,3.65
2022-12-05T22:00:12.444Z,3.97
2022-12-05T22:02:39.944Z,4.25
2022-12-05T22:05:07.363Z,3.35
2022-12-05T22:07:34.757Z,3.60
2022-12-05T22:10:02.324Z,3.65
2022-12-05T22:12:30.187Z,4.30
2022-12-05T22:14:57.737Z,4.03
2022-12-05T22:17:25.249Z,4.80
2022-12-05T22:19:52.506Z,4.40
2022-12-05T22:22:19.865Z,5.90
2022-12-05T22:24:47.109Z,5.45
2022-12-05T22:27:14.358Z,5.18
2022-12-05T22:29:52.887Z,4.95
2022-12-05T22:32:20.406Z,4.82
2022-12-05T22:34:47.673Z,5.15
2022-12-05T22:37:16.057Z,4.35
2022-12-05T22:39:43.719Z,4.95
2022-12-05T22:42:11.169Z,4.70
2022-12-05T22:44:38.591Z,4.13
2022-12-05T22:47:08.644Z,4.32
2022-12-05T22:49:39.133Z,4.32
2022-12-05T22:52:06.594Z,4.63
2022-12-05T22:54:33.955Z,4.18
2022-12-05T22:57:01.215Z,4.35
2022-12-05T22:59:28.479Z,4.53
2022-12-05T23:01:55.851Z,4.35
2022-12-05T23:04:23.937Z,4.50
2022-12-05T23:06:51.341Z,4.20
2022-12-05T23:09:18.862Z,4.97
2022-12-05T23:11:46.166Z,4.13
2022-12-05T23:14:13.519Z,4.45
2022-12-05T23:16:40.963Z,4.28
2022-12-05T23:19:08.355Z,3.80
2022-12-05T23:21:37.357Z,3.42
2022-12-05T23:24:06.024Z,4.32
2022-12-05T23:26:35.343Z,4.35
2022-12-05T23:29:03.083Z,3.85
2022-12-05T23:31:30.473Z,3.55
2022-12-05T23:34:02.931Z,4.10
2022-12-05T23:36:31.123Z,3.75
2022-12-05T23:38:58.422Z,4.30
2022-12-05T23:41:28.256Z,3.67
2022-12-05T23:43:56.740Z,4.07
2022-12-05T23:46:26.003Z,4.00
2022-12-05T23:48:53.693Z,3.67
2022-12-05T23:51:22.536Z,3.95
2022-12-05T23:53:53.415Z,3.80
2022-12-05T23:56:22.677Z,3.15
2022-12-05T23:58:50.015Z,3.60
